Time;durP1;ratioP1;P1;durP2;ratioP2;P2;SDS_P1;SDS_P2;PMS_P1;PMS_P2;Temp;Humidity;BMP_temperature;BMP_pressure;BME280_temperature;BME280_humidity;BME280_pressure;Samples;Min_cycle;Max_cycle;Signal;HPM_P1;HPM_P2
2024/03/05 00:00:09;;;;;;;99.33;24.83;;;;;;;;;;4992574;28;20936;-70
2024/03/05 00:02:38;;;;;;;91.00;23.67;;;;;;;;;;4995636;28;20582;-70
2024/03/05 00:05:06;;;;;;;95.77;25.20;;;;;;;;;;5012245;28;20455;-70
2024/03/05 00:07:35;;;;;;;90.47;25.17;;;;;;;;;;4993420;28;20524;-70
2024/03/05 00:10:02;;;;;;;90.33;22.90;;;;;;;;;;4992397;28;20457;-70
2024/03/05 00:12:29;;;;;;;91.97;25.23;;;;;;;;;;4992474;28;20443;-70
2024/03/05 00:14:57;;;;;;;87.93;23.40;;;;;;;;;;4992194;28;20548;-70
2024/03/05 00:17:24;;;;;;;97.77;24.43;;;;;;;;;;4992456;28;20473;-70
2024/03/05 00:19:51;;;;;;;96.67;25.10;;;;;;;;;;4992453;28;20450;-70
2024/03/05 00:22:18;;;;;;;92.83;23.93;;;;;;;;;;5008501;28;21020;-70
2024/03/05 00:24:47;;;;;;;93.70;26.10;;;;;;;;;;4992083;28;20971;-70
2024/03/05 00:27:14;;;;;;;91.10;24.23;;;;;;;;;;4992005;28;20552;-70
2024/03/05 00:29:41;;;;;;;92.17;23.13;;;;;;;;;;4995732;28;20455;-70
2024/03/05 00:32:09;;;;;;;93.07;23.13;;;;;;;;;;5011805;28;20443;-70
2024/03/05 00:34:36;;;;;;;96.87;25.73;;;;;;;;;;5011538;28;20453;-70
2024/03/05 00:37:03;;;;;;;93.33;25.30;;;;;;;;;;5011479;28;20484;-70
2024/03/05 00:39:30;;;;;;;93.93;23.90;;;;;;;;;;5003783;28;20454;-70
2024/03/05 00:41:58;;;;;;;92.67;24.27;;;;;;;;;;5011418;28;20491;-70
2024/03/05 00:44:26;;;;;;;88.10;22.97;;;;;;;;;;5010687;28;20492;-70
2024/03/05 00:46:53;;;;;;;91.30;24.50;;;;;;;;;;4992114;28;20483;-70
2024/03/05 00:49:21;;;;;;;88.87;21.67;;;;;;;;;;4991969;28;20453;-70
2024/03/05 00:51:49;;;;;;;93.60;26.07;;;;;;;;;;4991899;28;20960;-70
2024/03/05 00:54:16;;;;;;;96.00;24.23;;;;;;;;;;4991783;28;20454;-70
2024/03/05 00:56:43;;;;;;;94.27;25.60;;;;;;;;;;4991652;28;20476;-70
2024/03/05 00:59:12;;;;;;;95.30;25.30;;;;;;;;;;4991969;28;20537;-70
2024/03/05 01:01:39;;;;;;;90.70;23.57;;;;;;;;;;4993842;28;20894;-70
2024/03/05 01:04:08;;;;;;;90.00;24.97;;;;;;;;;;4995850;28;20542;-70
2024/03/05 01:06:35;;;;;;;100.63;26.43;;;;;;;;;;4995520;28;21015;-70
2024/03/05 01:09:07;;;;;;;90.63;23.57;;;;;;;;;;4995695;28;20454;-70
2024/03/05 01:11:34;;;;;;;89.87;24.80;;;;;;;;;;5005878;28;20447;-70
2024/03/05 01:14:01;;;;;;;92.37;25.73;;;;;;;;;;5015479;28;20907;-70
2024/03/05 01:16:30;;;;;;;93.83;24.57;;;;;;;;;;5015154;28;20474;-70
2024/03/05 01:18:57;;;;;;;93.57;25.30;;;;;;;;;;5015238;28;20451;-70
2024/03/05 01:21:24;;;;;;;94.03;25.53;;;;;;;;;;5014317;28;20453;-70
2024/03/05 01:23:51;;;;;;;93.93;25.73;;;;;;;;;;4995929;28;20454;-70
2024/03/05 01:26:18;;;;;;;88.13;23.10;;;;;;;;;;5011428;28;20663;-70
2024/03/05 01:28:46;;;;;;;90.07;23.57;;;;;;;;;;5015182;28;20456;-70
2024/03/05 01:31:13;;;;;;;91.97;24.37;;;;;;;;;;5015037;28;20551;-71
2024/03/05 01:33:43;;;;;;;98.57;25.90;;;;;;;;;;5015243;28;20772;-70
2024/03/05 01:36:11;;;;;;;88.63;23.60;;;;;;;;;;5007846;28;20574;-70
2024/03/05 01:38:38;;;;;;;95.30;23.93;;;;;;;;;;4995065;28;20535;-70
2024/03/05 01:41:05;;;;;;;91.90;23.03;;;;;;;;;;5009393;28;20445;-70
2024/03/05 01:43:32;;;;;;;90.37;23.07;;;;;;;;;;5013224;28;20867;-70
2024/03/05 01:45:59;;;;;;;95.30;23.63;;;;;;;;;;4994982;28;20468;-70
2024/03/05 01:48:27;;;;;;;92.80;23.93;;;;;;;;;;4995037;28;20547;-70
2024/03/05 01:50:56;;;;;;;99.53;26.10;;;;;;;;;;5007435;28;20456;-70
2024/03/05 01:53:23;;;;;;;97.07;26.60;;;;;;;;;;5014678;28;20732;-70
2024/03/05 01:55:53;;;;;;;100.23;27.07;;;;;;;;;;5014292;28;20452;-70
2024/03/05 01:58:20;;;;;;;94.77;24.13;;;;;;;;;;5014629;28;20500;-70
2024/03/05 02:00:48;;;;;;;93.60;25.07;;;;;;;;;;4986939;28;20446;-71
2024/03/05 02:03:15;;;;;;;100.20;25.50;;;;;;;;;;4994729;28;20485;-70
2024/03/05 02:05:43;;;;;;;94.33;25.20;;;;;;;;;;5005517;28;20462;-70
2024/03/05 02:08:12;;;;;;;93.77;25.83;;;;;;;;;;4999905;28;20456;-70
2024/03/05 02:10:39;;;;;;;99.20;24.93;;;;;;;;;;4994522;28;20950;-70
2024/03/05 02:13:10;;;;;;;97.10;25.33;;;;;;;;;;4993667;28;20536;-70
2024/03/05 02:15:37;;;;;;;96.97;24.33;;;;;;;;;;4994304;28;20455;-70
2024/03/05 02:18:05;;;;;;;100.87;25.80;;;;;;;;;;4994839;28;20464;-70
2024/03/05 02:20:33;;;;;;;92.70;24.07;;;;;;;;;;4994451;28;20455;-70
2024/03/05 02:23:03;;;;;;;94.07;25.30;;;;;;;;;;4994440;28;20535;-70
2024/03/05 02:25:31;;;;;;;95.17;23.90;;;;;;;;;;5011494;28;20510;-70
2024/03/05 02:27:58;;;;;;;88.87;22.93;;;;;;;;;;5013815;28;20476;-70
2024/03/05 02:30:25;;;;;;;94.30;26.77;;;;;;;;;;5013484;28;20468;-70
2024/03/05 02:32:52;;;;;;;92.70;24.60;;;;;;;;;;4994216;28;20455;-70
2024/03/05 02:35:20;;;;;;;95.50;24.60;;;;;;;;;;5001874;28;20457;-70
2024/03/05 02:37:47;;;;;;;95.77;24.63;;;;;;;;;;5013577;28;20483;-70
2024/03/05 02:40:16;;;;;;;102.10;26.40;;;;;;;;;;5013775;28;20867;-70
2024/03/05 02:42:43;;;;;;;95.07;25.20;;;;;;;;;;4994495;28;20485;-70
2024/03/05 02:45:12;;;;;;;100.47;26.20;;;;;;;;;;4994061;28;20457;-70
2024/03/05 02:47:40;;;;;;;99.33;25.73;;;;;;;;;;5012577;28;20472;-71
2024/03/05 02:50:09;;;;;;;100.10;26.20;;;;;;;;;;5012956;28;20448;-70
2024/03/05 02:52:36;;;;;;;95.10;24.97;;;;;;;;;;5012008;28;20455;-70
2024/03/05 02:55:03;;;;;;;93.00;22.97;;;;;;;;;;4993641;28;20461;-70
2024/03/05 02:57:32;;;;;;;95.10;26.17;;;;;;;;;;4993848;28;20474;-70
2024/03/05 02:59:59;;;;;;;90.57;24.30;;;;;;;;;;4993740;28;20465;-70
2024/03/05 03:02:26;;;;;;;92.97;25.40;;;;;;;;;;4993565;28;20894;-70
2024/03/05 03:04:54;;;;;;;88.37;22.73;;;;;;;;;;4993468;28;20453;-70
2024/03/05 03:07:21;;;;;;;112.43;26.33;;;;;;;;;;4993798;28;20524;-70
2024/03/05 03:09:48;;;;;;;102.40;25.87;;;;;;;;;;4993532;28;20963;-70
2024/03/05 03:12:16;;;;;;;93.87;25.97;;;;;;;;;;4993331;28;20459;-70
2024/03/05 03:14:45;;;;;;;106.27;29.00;;;;;;;;;;4993362;28;20527;-70
2024/03/05 03:17:12;;;;;;;97.57;25.87;;;;;;;;;;4993319;28;20970;-70
2024/03/05 03:19:39;;;;;;;91.73;24.63;;;;;;;;;;5003594;28;20459;-70
2024/03/05 03:22:06;;;;;;;101.77;27.90;;;;;;;;;;5012975;28;20456;-70
2024/03/05 03:24:33;;;;;;;92.53;24.17;;;;;;;;;;5003439;28;20460;-70
2024/03/05 03:27:00;;;;;;;102.37;26.90;;;;;;;;;;4998023;28;20519;-70
2024/03/05 03:29:27;;;;;;;89.43;24.23;;;;;;;;;;5012702;28;20452;-70
2024/03/05 03:31:56;;;;;;;101.77;26.57;;;;;;;;;;5012970;28;20452;-70
2024/03/05 03:34:23;;;;;;;100.60;27.23;;;;;;;;;;5004973;28;20459;-70
2024/03/05 03:36:50;;;;;;;111.20;29.80;;;;;;;;;;4992489;28;20481;-70
2024/03/05 03:39:23;;;;;;;105.43;28.27;;;;;;;;;;5000006;28;20457;-70
2024/03/05 03:41:53;;;;;;;100.30;28.37;;;;;;;;;;5012783;28;21007;-70
2024/03/05 03:44:20;;;;;;;103.70;29.80;;;;;;;;;;4996757;28;20551;-70
2024/03/05 03:46:48;;;;;;;101.47;29.47;;;;;;;;;;4992898;28;20523;-70
2024/03/05 03:49:18;;;;;;;101.67;29.40;;;;;;;;;;4992883;28;20458;-70
2024/03/05 03:51:45;;;;;;;105.87;30.47;;;;;;;;;;4992785;28;20453;-70
2024/03/05 03:54:12;;;;;;;97.43;25.83;;;;;;;;;;4992828;28;20457;-70
2024/03/05 03:56:40;;;;;;;103.73;28.27;;;;;;;;;;4992362;28;20479;-70
2024/03/05 03:59:07;;;;;;;102.77;28.83;;;;;;;;;;4992366;28;20964;-70
2024/03/05 04:01:35;;;;;;;111.63;30.10;;;;;;;;;;4992710;28;20456;-70
2024/03/05 04:04:02;;;;;;;110.87;28.03;;;;;;;;;;4992504;28;21008;-70
2024/03/05 04:06:30;;;;;;;102.90;27.33;;;;;;;;;;4992646;28;20849;-70
2024/03/05 04:08:58;;;;;;;98.47;28.00;;;;;;;;;;4992617;28;20453;-71
2024/03/05 04:11:25;;;;;;;102.30;27.00;;;;;;;;;;5008197;28;21002;-70
2024/03/05 04:13:52;;;;;;;104.87;28.00;;;;;;;;;;5012265;28;20509;-70
2024/03/05 04:16:19;;;;;;;103.53;28.23;;;;;;;;;;5011987;28;20824;-70
2024/03/05 04:18:46;;;;;;;102.87;26.10;;;;;;;;;;5011914;28;20463;-70
2024/03/05 04:21:13;;;;;;;98.10;23.97;;;;;;;;;;5011896;28;20452;-71
2024/03/05 04:23:42;;;;;;;102.20;27.63;;;;;;;;;;5003490;28;20483;-71
2024/03/05 04:26:13;;;;;;;100.87;27.30;;;;;;;;;;5011604;28;21021;-70
2024/03/05 04:28:49;;;;;;;105.50;29.63;;;;;;;;;;5011847;28;20893;-70
2024/03/05 04:31:16;;;;;;;98.40;27.13;;;;;;;;;;5012305;28;20839;-70
2024/03/05 04:33:43;;;;;;;96.20;27.10;;;;;;;;;;5011510;28;20450;-70
2024/03/05 04:36:14;;;;;;;95.60;26.50;;;;;;;;;;5005170;28;20484;-70
2024/03/05 04:38:43;;;;;;;99.70;28.20;;;;;;;;;;5002048;28;20514;-70
2024/03/05 04:41:13;;;;;;;96.83;25.70;;;;;;;;;;4998381;28;20446;-70
2024/03/05 04:43:40;;;;;;;100.10;28.13;;;;;;;;;;5009812;28;20487;-70
2024/03/05 04:46:07;;;;;;;95.77;25.40;;;;;;;;;;5011435;28;20467;-70
2024/03/05 04:48:35;;;;;;;102.00;26.30;;;;;;;;;;5011786;28;20487;-70
2024/03/05 04:51:02;;;;;;;102.57;26.30;;;;;;;;;;5011513;28;20458;-70
2024/03/05 04:53:29;;;;;;;103.40;25.87;;;;;;;;;;5011481;28;20933;-70
2024/03/05 04:55:57;;;;;;;101.93;27.03;;;;;;;;;;5011466;28;20454;-70
2024/03/05 04:58:25;;;;;;;101.30;27.13;;;;;;;;;;5004308;28;20810;-70
2024/03/05 05:00:52;;;;;;;101.10;24.87;;;;;;;;;;4991787;28;20449;-70
2024/03/05 05:03:20;;;;;;;97.57;26.17;;;;;;;;;;5006448;28;20487;-70
2024/03/05 05:05:47;;;;;;;97.20;26.17;;;;;;;;;;4992585;28;20540;-70
2024/03/05 05:08:14;;;;;;;97.90;27.10;;;;;;;;;;5006172;28;20456;-70
2024/03/05 05:10:41;;;;;;;101.43;26.70;;;;;;;;;;4993697;28;20452;-70
2024/03/05 05:13:10;;;;;;;102.33;27.03;;;;;;;;;;4991687;28;20451;-70
2024/03/05 05:15:37;;;;;;;95.50;25.77;;;;;;;;;;4992414;28;20445;-70
2024/03/05 05:18:04;;;;;;;97.77;26.13;;;;;;;;;;5011209;28;20825;-70
2024/03/05 05:20:31;;;;;;;93.70;25.00;;;;;;;;;;5011389;28;20554;-71
2024/03/05 05:22:59;;;;;;;94.17;24.90;;;;;;;;;;5011227;28;20484;-70
2024/03/05 05:25:26;;;;;;;92.33;24.37;;;;;;;;;;5011124;28;20462;-70
2024/03/05 05:27:53;;;;;;;95.40;24.40;;;;;;;;;;5000383;28;20480;-70
2024/03/05 05:30:23;;;;;;;99.00;27.00;;;;;;;;;;5006336;28;20456;-70
2024/03/05 05:32:50;;;;;;;101.93;27.57;;;;;;;;;;5011263;28;20457;-70
2024/03/05 05:35:18;;;;;;;98.80;24.80;;;;;;;;;;4996953;28;20452;-70
2024/03/05 05:37:46;;;;;;;98.33;27.20;;;;;;;;;;5001237;28;20487;-70
2024/03/05 05:40:16;;;;;;;100.10;26.50;;;;;;;;;;5011198;28;20541;-70
2024/03/05 05:42:43;;;;;;;102.77;28.80;;;;;;;;;;5011200;28;20503;-70
2024/03/05 05:45:12;;;;;;;101.03;27.93;;;;;;;;;;5010858;28;20829;-70
2024/03/05 05:47:49;;;;;;;101.10;25.93;;;;;;;;;;5011483;28;20841;-71
2024/03/05 05:50:19;;;;;;;103.90;27.57;;;;;;;;;;5008735;28;20471;-71
2024/03/05 05:52:47;;;;;;;98.47;27.23;;;;;;;;;;4994948;28;20536;-70
2024/03/05 05:55:15;;;;;;;96.87;28.07;;;;;;;;;;4994856;28;20489;-70
2024/03/05 05:57:42;;;;;;;101.63;25.00;;;;;;;;;;5002696;28;20472;-71
2024/03/05 06:00:22;;;;;;;100.53;26.30;;;;;;;;;;4995071;28;20465;-70
2024/03/05 06:02:50;;;;;;;102.67;25.87;;;;;;;;;;4994689;28;20980;-70
2024/03/05 06:05:18;;;;;;;92.00;23.67;;;;;;;;;;4994934;28;20453;-70
2024/03/05 06:07:45;;;;;;;99.53;25.80;;;;;;;;;;5012435;28;20830;-70
2024/03/05 06:10:14;;;;;;;101.40;27.07;;;;;;;;;;5014193;28;20556;-70
2024/03/05 06:12:41;;;;;;;102.47;27.63;;;;;;;;;;5005698;28;20457;-70
2024/03/05 06:15:08;;;;;;;97.10;26.57;;;;;;;;;;5001302;28;20452;-70
2024/03/05 06:17:35;;;;;;;97.87;25.77;;;;;;;;;;5002824;28;20471;-70
2024/03/05 06:20:04;;;;;;;101.70;29.20;;;;;;;;;;5014281;28;20459;-70
2024/03/05 06:22:31;;;;;;;104.70;28.10;;;;;;;;;;4998475;28;20453;-70
2024/03/05 06:24:58;;;;;;;103.10;27.27;;;;;;;;;;5013880;28;20605;-70
2024/03/05 06:27:26;;;;;;;107.50;30.57;;;;;;;;;;4999117;28;20473;-71
2024/03/05 06:29:54;;;;;;;103.90;27.60;;;;;;;;;;5004956;28;20451;-71
2024/03/05 06:32:23;;;;;;;104.17;30.37;;;;;;;;;;5007704;28;20550;-70
2024/03/05 06:34:50;;;;;;;98.20;27.70;;;;;;;;;;5004210;28;20929;-71
2024/03/05 06:37:19;;;;;;;106.33;31.33;;;;;;;;;;5013642;28;20546;-70
2024/03/05 06:39:46;;;;;;;102.80;29.10;;;;;;;;;;5013625;28;20964;-70
2024/03/05 06:42:13;;;;;;;100.10;27.53;;;;;;;;;;5013859;28;20448;-70
2024/03/05 06:44:41;;;;;;;99.27;27.20;;;;;;;;;;5004704;28;20497;-70
2024/03/05 06:47:12;;;;;;;100.17;27.77;;;;;;;;;;4994026;28;20474;-70
2024/03/05 06:49:40;;;;;;;103.17;29.40;;;;;;;;;;5001998;28;20535;-71
2024/03/05 06:57:42;;;;;;;103.07;30.37;;;;;;;;;;5004649;28;20452;-71
2024/03/05 07:00:17;;;;;;;97.57;26.70;;;;;;;;;;5006365;28;20456;-70
2024/03/05 07:02:44;;;;;;;100.27;27.10;;;;;;;;;;5013457;28;20465;-70
2024/03/05 07:05:11;;;;;;;98.47;26.20;;;;;;;;;;5013248;28;20511;-70
2024/03/05 07:07:39;;;;;;;98.93;27.37;;;;;;;;;;4993121;28;20969;-71
2024/03/05 07:10:13;;;;;;;113.53;31.73;;;;;;;;;;4993340;28;20604;-71
2024/03/05 07:12:42;;;;;;;113.10;30.77;;;;;;;;;;4993840;28;20532;-71
2024/03/05 07:15:10;;;;;;;105.03;32.57;;;;;;;;;;5005989;28;20804;-70
2024/03/05 07:17:39;;;;;;;106.67;28.70;;;;;;;;;;5004689;28;20478;-70
2024/03/05 07:20:18;;;;;;;105.90;30.57;;;;;;;;;;4993527;28;20454;-71
2024/03/05 07:22:45;;;;;;;97.07;28.73;;;;;;;;;;4993463;28;21019;-71
2024/03/05 07:25:15;;;;;;;98.57;28.43;;;;;;;;;;5005958;28;20483;-71
2024/03/05 07:27:42;;;;;;;104.57;29.17;;;;;;;;;;5004233;28;20473;-71
2024/03/05 07:30:15;;;;;;;101.97;29.83;;;;;;;;;;4993262;28;20500;-70
2024/03/05 07:32:42;;;;;;;102.63;29.77;;;;;;;;;;4994158;28;20455;-70
2024/03/05 07:35:10;;;;;;;109.53;29.80;;;;;;;;;;5012737;28;20449;-70
2024/03/05 07:37:37;;;;;;;93.57;25.20;;;;;;;;;;5012501;28;20483;-70
2024/03/05 07:40:15;;;;;;;102.47;27.87;;;;;;;;;;5012589;28;20519;-70
2024/03/05 07:42:44;;;;;;;99.57;26.63;;;;;;;;;;5012717;28;20448;-70
2024/03/05 07:45:12;;;;;;;100.17;25.67;;;;;;;;;;5007885;28;20494;-71
2024/03/05 07:47:40;;;;;;;98.17;24.40;;;;;;;;;;5001232;28;20486;-71
2024/03/05 07:50:08;;;;;;;96.17;24.53;;;;;;;;;;5012463;28;20453;-71
2024/03/05 07:52:35;;;;;;;96.37;24.73;;;;;;;;;;5012714;28;20452;-70
2024/03/05 07:55:03;;;;;;;102.20;28.10;;;;;;;;;;5012400;28;20854;-70
2024/03/05 07:57:31;;;;;;;99.73;26.70;;;;;;;;;;5012504;28;20595;-71
2024/03/05 08:00:00;;;;;;;96.13;25.90;;;;;;;;;;5012878;28;20530;-71
2024/03/05 08:02:28;;;;;;;95.83;24.97;;;;;;;;;;5012357;28;20454;-71
2024/03/05 08:04:55;;;;;;;97.10;27.87;;;;;;;;;;5012235;28;20555;-70
2024/03/05 08:07:22;;;;;;;99.43;27.60;;;;;;;;;;5012558;28;20471;-70
2024/03/05 08:09:49;;;;;;;93.90;26.10;;;;;;;;;;5011887;28;20452;-70
2024/03/05 08:12:17;;;;;;;94.47;25.73;;;;;;;;;;5011652;28;20461;-70
2024/03/05 08:14:44;;;;;;;101.57;27.30;;;;;;;;;;5011741;28;20756;-70
2024/03/05 08:17:12;;;;;;;94.87;26.20;;;;;;;;;;5007708;28;20481;-70
2024/03/05 08:19:41;;;;;;;102.80;28.10;;;;;;;;;;4992191;28;20449;-70
2024/03/05 08:22:08;;;;;;;96.70;26.10;;;;;;;;;;4992288;28;20980;-70
2024/03/05 08:24:35;;;;;;;94.50;26.97;;;;;;;;;;4992216;28;20488;-70
2024/03/05 08:27:03;;;;;;;96.70;24.73;;;;;;;;;;4992120;28;20465;-70
2024/03/05 08:29:30;;;;;;;98.37;26.67;;;;;;;;;;4992105;28;20488;-70
2024/03/05 08:31:57;;;;;;;105.10;28.13;;;;;;;;;;4991933;28;20452;-70
2024/03/05 08:34:25;;;;;;;99.30;27.73;;;;;;;;;;4992379;28;20463;-70
2024/03/05 08:36:53;;;;;;;98.90;26.57;;;;;;;;;;4991845;28;20480;-70
2024/03/05 08:39:21;;;;;;;112.10;28.27;;;;;;;;;;4992225;28;20462;-70
2024/03/05 08:41:48;;;;;;;100.20;27.63;;;;;;;;;;4992002;28;20520;-70
2024/03/05 08:44:17;;;;;;;96.03;25.33;;;;;;;;;;4991839;28;20499;-70
2024/03/05 08:46:44;;;;;;;90.73;23.97;;;;;;;;;;4991911;28;20561;-70
2024/03/05 08:49:11;;;;;;;99.60;26.27;;;;;;;;;;4992125;28;20456;-70
2024/03/05 08:51:40;;;;;;;100.07;26.37;;;;;;;;;;4992047;28;20465;-70
2024/03/05 08:54:08;;;;;;;103.63;28.13;;;;;;;;;;4991994;28;20453;-70
2024/03/05 08:56:37;;;;;;;93.03;25.37;;;;;;;;;;4991623;28;20910;-71
2024/03/05 08:59:06;;;;;;;95.70;25.47;;;;;;;;;;4991566;28;20454;-70
2024/03/05 09:01:33;;;;;;;76.10;17.00;;;;;;;;;;4992085;28;20458;-70
2024/03/05 09:04:01;;;;;;;79.57;15.53;;;;;;;;;;4992001;28;20492;-70
2024/03/05 09:06:28;;;;;;;72.57;13.63;;;;;;;;;;4991702;28;20561;-70
2024/03/05 09:08:56;;;;;;;69.27;11.93;;;;;;;;;;4991767;28;20452;-70
2024/03/05 09:11:23;;;;;;;68.60;9.87;;;;;;;;;;4991663;28;21030;-70
2024/03/05 09:13:50;;;;;;;67.10;9.90;;;;;;;;;;4991947;28;20453;-71
2024/03/05 09:16:18;;;;;;;70.70;10.50;;;;;;;;;;4996436;28;20493;-70
2024/03/05 09:18:45;;;;;;;68.87;10.83;;;;;;;;;;5011304;28;20451;-70
2024/03/05 09:21:12;;;;;;;67.30;9.80;;;;;;;;;;5011224;28;20486;-70
2024/03/05 09:23:39;;;;;;;70.23;11.50;;;;;;;;;;5014582;28;20531;-70
2024/03/05 09:26:08;;;;;;;68.43;10.90;;;;;;;;;;5014591;28;20563;-70
2024/03/05 09:28:35;;;;;;;66.77;10.30;;;;;;;;;;5015263;28;20816;-71
2024/03/05 09:31:02;;;;;;;69.10;10.80;;;;;;;;;;5014952;28;20448;-71
2024/03/05 09:33:30;;;;;;;69.70;12.30;;;;;;;;;;5015063;28;20539;-71
2024/03/05 09:35:58;;;;;;;69.10;11.47;;;;;;;;;;5014679;28;20476;-71
2024/03/05 09:38:25;;;;;;;69.40;10.97;;;;;;;;;;5014839;28;20459;-71
2024/03/05 09:40:52;;;;;;;69.50;11.17;;;;;;;;;;5005432;28;20481;-71
2024/03/05 09:43:22;;;;;;;67.60;10.40;;;;;;;;;;4995192;28;20447;-71
2024/03/05 09:45:50;;;;;;;70.10;12.43;;;;;;;;;;4994752;28;20488;-71
2024/03/05 09:48:18;;;;;;;67.53;10.87;;;;;;;;;;4995250;28;20457;-71
2024/03/05 09:50:46;;;;;;;68.73;10.73;;;;;;;;;;4994899;28;20448;-71
2024/03/05 09:53:13;;;;;;;67.50;10.43;;;;;;;;;;4995464;28;20465;-71
2024/03/05 09:55:40;;;;;;;71.03;10.80;;;;;;;;;;4995006;28;20456;-71
2024/03/05 09:58:10;;;;;;;69.70;10.93;;;;;;;;;;4994843;28;20497;-71
2024/03/05 10:00:39;;;;;;;67.50;10.17;;;;;;;;;;4994924;28;20522;-70
2024/03/05 10:03:08;;;;;;;67.33;10.37;;;;;;;;;;4994799;28;20448;-70
2024/03/05 10:05:37;;;;;;;67.27;11.13;;;;;;;;;;4994462;28;20488;-71
2024/03/05 10:08:04;;;;;;;69.70;11.40;;;;;;;;;;4994615;28;20449;-70
2024/03/05 10:10:32;;;;;;;73.17;11.83;;;;;;;;;;4994740;28;20460;-70
2024/03/05 10:13:01;;;;;;;70.90;11.03;;;;;;;;;;4994615;28;20479;-70
2024/03/05 10:15:28;;;;;;;68.33;12.90;;;;;;;;;;4994553;28;20450;-70
2024/03/05 10:17:57;;;;;;;69.30;11.70;;;;;;;;;;4994374;28;20478;-70
2024/03/05 10:20:27;;;;;;;69.40;11.97;;;;;;;;;;4994703;28;20448;-70
2024/03/05 10:22:55;;;;;;;69.00;12.10;;;;;;;;;;4994612;28;20483;-70
2024/03/05 10:25:23;;;;;;;71.80;12.57;;;;;;;;;;4994292;28;20489;-70
2024/03/05 10:27:51;;;;;;;71.10;12.57;;;;;;;;;;4994440;28;20477;-70
2024/03/05 10:30:25;;;;;;;68.37;13.00;;;;;;;;;;4994303;28;20515;-70
2024/03/05 10:32:59;;;;;;;67.97;12.33;;;;;;;;;;5010435;28;20455;-70
2024/03/05 10:35:26;;;;;;;66.87;11.30;;;;;;;;;;4993680;28;20503;-70
2024/03/05 10:37:56;;;;;;;68.90;11.30;;;;;;;;;;4994135;28;20480;-70
2024/03/05 10:40:24;;;;;;;69.87;11.60;;;;;;;;;;4994277;28;20455;-70
2024/03/05 10:42:52;;;;;;;68.40;12.17;;;;;;;;;;4994180;28;20450;-70
2024/03/05 10:45:23;;;;;;;68.40;11.43;;;;;;;;;;4993820;28;20914;-70
2024/03/05 10:47:52;;;;;;;69.47;13.20;;;;;;;;;;4994176;28;20474;-70
2024/03/05 10:50:20;;;;;;;70.20;13.40;;;;;;;;;;4994258;28;20455;-70
2024/03/05 10:52:49;;;;;;;70.27;12.63;;;;;;;;;;4994017;28;20459;-70
2024/03/05 10:55:21;;;;;;;66.80;12.37;;;;;;;;;;4993849;28;20457;-70
2024/03/05 11:00:35;;;;;;;64.07;10.53;;;;;;;;;;5013448;28;20655;-70
2024/03/05 11:03:03;;;;;;;66.07;10.50;;;;;;;;;;5013362;28;20456;-70
2024/03/05 11:05:33;;;;;;;68.07;12.40;;;;;;;;;;5013027;28;20479;-70
2024/03/05 11:08:02;;;;;;;65.47;11.47;;;;;;;;;;5013126;28;20472;-70
2024/03/05 11:10:30;;;;;;;64.90;10.40;;;;;;;;;;5013065;28;20452;-70
2024/03/05 11:12:57;;;;;;;64.93;10.57;;;;;;;;;;5013203;28;20452;-70
2024/03/05 11:15:25;;;;;;;64.03;10.50;;;;;;;;;;5013212;28;20444;-70
2024/03/05 11:17:52;;;;;;;66.20;11.07;;;;;;;;;;5004559;28;20480;-70
2024/03/05 11:20:34;;;;;;;63.53;9.47;;;;;;;;;;4993462;28;20448;-70
2024/03/05 11:23:05;;;;;;;62.37;8.80;;;;;;;;;;4990244;28;20460;-70
2024/03/05 11:25:34;;;;;;;62.07;8.77;;;;;;;;;;4993347;28;20488;-70
2024/03/05 11:28:01;;;;;;;63.57;9.10;;;;;;;;;;4993259;28;20533;-70
2024/03/05 11:30:29;;;;;;;63.00;7.97;;;;;;;;;;4993011;28;20454;-70
2024/03/05 11:32:56;;;;;;;61.43;7.50;;;;;;;;;;4993222;28;20453;-70
2024/03/05 11:35:26;;;;;;;60.90;7.50;;;;;;;;;;4993026;28;20465;-70
2024/03/05 11:37:54;;;;;;;62.90;7.73;;;;;;;;;;4993072;28;21012;-70
2024/03/05 11:40:31;;;;;;;61.70;7.57;;;;;;;;;;4993203;28;20450;-70
2024/03/05 11:42:59;;;;;;;64.80;7.77;;;;;;;;;;5002329;28;20928;-70
2024/03/05 11:45:43;;;;;;;60.60;7.20;;;;;;;;;;5012275;28;20496;-70
2024/03/05 11:48:11;;;;;;;62.10;8.17;;;;;;;;;;5012730;28;20467;-71
2024/03/05 11:50:39;;;;;;;60.07;7.43;;;;;;;;;;5012657;28;20490;-71
2024/03/05 11:53:07;;;;;;;59.33;6.50;;;;;;;;;;4994100;28;20453;-71
2024/03/05 11:55:35;;;;;;;62.90;8.33;;;;;;;;;;4992722;28;20503;-71
2024/03/05 11:58:03;;;;;;;63.67;8.13;;;;;;;;;;4992619;28;20958;-71
2024/03/05 12:00:30;;;;;;;60.40;6.50;;;;;;;;;;4993055;28;20454;-71
2024/03/05 12:02:57;;;;;;;60.60;6.97;;;;;;;;;;4992780;28;20452;-71
2024/03/05 12:05:25;;;;;;;61.47;6.93;;;;;;;;;;4992583;28;20489;-71
2024/03/05 12:07:59;;;;;;;62.50;7.03;;;;;;;;;;4992478;28;20476;-71
2024/03/05 12:10:28;;;;;;;59.70;7.13;;;;;;;;;;4992367;28;20448;-71
2024/03/05 12:12:57;;;;;;;60.67;6.30;;;;;;;;;;4992689;28;20457;-71
2024/03/05 12:15:26;;;;;;;58.90;5.47;;;;;;;;;;4992511;28;20508;-71
2024/03/05 12:17:53;;;;;;;59.20;5.80;;;;;;;;;;4992594;28;20851;-71
2024/03/05 12:20:21;;;;;;;58.40;5.23;;;;;;;;;;4992504;28;20571;-71
2024/03/05 12:22:51;;;;;;;59.57;5.87;;;;;;;;;;4992761;28;20458;-71
2024/03/05 12:25:19;;;;;;;57.90;4.90;;;;;;;;;;4984222;28;20480;-71
2024/03/05 12:27:49;;;;;;;62.17;5.33;;;;;;;;;;4992748;28;20480;-71
2024/03/05 12:30:18;;;;;;;57.90;5.07;;;;;;;;;;4992511;28;20537;-73
2024/03/05 12:32:46;;;;;;;58.27;5.17;;;;;;;;;;4999709;28;20631;-73
2024/03/05 12:35:14;;;;;;;59.03;5.50;;;;;;;;;;5011723;28;20456;-72
2024/03/05 12:37:41;;;;;;;63.03;5.70;;;;;;;;;;5011464;28;20898;-72
2024/03/05 12:40:15;;;;;;;60.90;5.87;;;;;;;;;;5011810;28;20460;-72
2024/03/05 12:42:44;;;;;;;58.50;4.90;;;;;;;;;;5011984;28;20856;-72
2024/03/05 12:45:14;;;;;;;57.80;4.93;;;;;;;;;;5000725;28;21072;-72
2024/03/05 12:47:45;;;;;;;60.33;5.90;;;;;;;;;;4992403;28;20882;-72
2024/03/05 12:50:13;;;;;;;57.90;4.30;;;;;;;;;;4991905;28;20505;-72
2024/03/05 12:52:40;;;;;;;59.13;5.50;;;;;;;;;;4992265;28;20941;-72
2024/03/05 12:55:09;;;;;;;58.80;4.60;;;;;;;;;;4991982;28;20468;-71
2024/03/05 12:57:36;;;;;;;58.90;5.47;;;;;;;;;;4994664;28;20480;-71
2024/03/05 13:00:10;;;;;;;59.17;6.10;;;;;;;;;;5014711;28;20455;-72
2024/03/05 13:02:37;;;;;;;58.70;5.17;;;;;;;;;;5011165;28;20942;-71
2024/03/05 13:05:07;;;;;;;59.13;5.37;;;;;;;;;;4997116;28;20451;-71
2024/03/05 13:07:35;;;;;;;59.87;6.10;;;;;;;;;;4997352;28;20481;-69
2024/03/05 13:10:02;;;;;;;57.67;4.60;;;;;;;;;;5006607;28;20464;-71
2024/03/05 13:12:29;;;;;;;59.20;4.80;;;;;;;;;;5017328;28;20448;-70
2024/03/05 13:14:57;;;;;;;58.73;4.70;;;;;;;;;;5017091;28;20460;-70
2024/03/05 13:17:24;;;;;;;59.20;5.07;;;;;;;;;;5016879;28;20475;-70
2024/03/05 13:19:51;;;;;;;58.67;4.73;;;;;;;;;;5018038;28;20460;-70
2024/03/05 13:22:21;;;;;;;58.03;5.17;;;;;;;;;;5014825;28;20458;-71
2024/03/05 13:24:48;;;;;;;59.20;5.47;;;;;;;;;;4998052;28;20464;-70
2024/03/05 13:27:16;;;;;;;59.80;5.37;;;;;;;;;;4997987;28;20993;-71
2024/03/05 13:29:43;;;;;;;58.30;4.50;;;;;;;;;;5012670;28;20821;-70
2024/03/05 13:32:10;;;;;;;57.77;4.67;;;;;;;;;;5015807;28;20453;-70
2024/03/05 13:34:38;;;;;;;58.27;4.50;;;;;;;;;;4998212;28;20530;-71
2024/03/05 13:37:05;;;;;;;57.47;4.10;;;;;;;;;;4998122;28;20471;-70
2024/03/05 13:39:33;;;;;;;56.67;3.77;;;;;;;;;;5011234;28;20529;-70
2024/03/05 13:42:02;;;;;;;57.77;4.40;;;;;;;;;;5017661;28;20447;-71
2024/03/05 13:44:29;;;;;;;58.70;3.80;;;;;;;;;;5005293;28;20451;-71
2024/03/05 13:46:57;;;;;;;56.80;3.43;;;;;;;;;;5014545;28;20975;-71
2024/03/05 13:49:24;;;;;;;56.53;3.17;;;;;;;;;;4998110;28;20457;-72
2024/03/05 13:51:53;;;;;;;57.27;4.40;;;;;;;;;;4998263;28;20457;-71
2024/03/05 13:54:21;;;;;;;55.90;3.87;;;;;;;;;;4997936;28;20447;-71
2024/03/05 13:56:50;;;;;;;58.07;3.83;;;;;;;;;;5004629;28;20473;-70
2024/03/05 13:59:19;;;;;;;57.20;3.30;;;;;;;;;;5011455;28;20854;-70
2024/03/05 14:01:46;;;;;;;56.57;3.43;;;;;;;;;;5003570;28;20924;-71
2024/03/05 14:04:13;;;;;;;56.10;2.60;;;;;;;;;;5016593;28;20457;-71
2024/03/05 14:06:40;;;;;;;56.47;3.20;;;;;;;;;;5016304;28;20583;-71
2024/03/05 14:09:08;;;;;;;56.10;2.87;;;;;;;;;;5012363;28;20453;-71
2024/03/05 14:11:36;;;;;;;56.37;3.03;;;;;;;;;;4994252;28;20452;-71
2024/03/05 14:14:04;;;;;;;59.10;3.70;;;;;;;;;;5009707;28;20853;-70
2024/03/05 14:16:34;;;;;;;55.07;3.03;;;;;;;;;;4997965;28;20539;-70
2024/03/05 14:19:01;;;;;;;56.97;3.30;;;;;;;;;;5004704;28;20557;-70
2024/03/05 14:21:30;;;;;;;56.20;3.10;;;;;;;;;;4993353;28;20451;-70
2024/03/05 14:23:58;;;;;;;56.30;3.00;;;;;;;;;;5010671;28;20815;-70
2024/03/05 14:26:25;;;;;;;56.77;2.97;;;;;;;;;;4994573;28;20911;-70
2024/03/05 14:28:52;;;;;;;55.83;2.90;;;;;;;;;;4994570;28;20455;-70